Time;durP1;ratioP1;P1;durP2;ratioP2;P2;SDS_P1;SDS_P2;PMS_P1;PMS_P2;Temp;Humidity;BMP_temperature;BMP_pressure;BME280_temperature;BME280_humidity;BME280_pressure;Samples;Min_cycle;Max_cycle;Signal;HPM_P1;HPM_P2
2022/12/07 00:00:55;;;;;;;14.03;10.87;;;;;;;2.94;100.00;100245.28;4997437;28;20293;-67
2022/12/07 00:03:23;;;;;;;12.40;10.70;;;;;;;2.97;100.00;100247.78;4998318;28;20217;-68
2022/12/07 00:05:48;;;;;;;11.83;10.30;;;;;;;2.99;100.00;100246.00;5012347;28;20201;-68
2022/12/07 00:08:14;;;;;;;14.93;9.30;;;;;;;2.85;100.00;100244.63;5013125;28;20205;-68
2022/12/07 00:10:39;;;;;;;13.27;9.83;;;;;;;2.85;100.00;100233.59;5005127;28;20308;-67
2022/12/07 00:13:04;;;;;;;12.87;9.33;;;;;;;2.91;100.00;100225.84;5024367;28;20175;-68
2022/12/07 00:15:39;;;;;;;11.80;9.33;;;;;;;2.87;100.00;100225.06;5005305;28;20263;-68
2022/12/07 00:18:04;;;;;;;12.37;9.17;;;;;;;2.92;100.00;100226.72;5011322;28;20709;-67
2022/12/07 00:20:35;;;;;;;10.97;9.40;;;;;;;2.86;100.00;100231.03;5006759;28;20232;-67
2022/12/07 00:23:01;;;;;;;9.73;8.10;;;;;;;2.90;100.00;100231.78;5020018;28;20237;-68
2022/12/07 00:25:26;;;;;;;10.33;8.50;;;;;;;2.79;100.00;100231.19;5013791;28;20207;-68
2022/12/07 00:27:55;;;;;;;14.80;9.37;;;;;;;2.95;100.00;100230.00;5012520;28;20193;-67
2022/12/07 00:30:21;;;;;;;10.77;8.43;;;;;;;3.05;100.00;100217.94;4999704;28;20218;-68
2022/12/07 00:32:46;;;;;;;9.53;8.07;;;;;;;3.10;100.00;100213.59;5026388;28;20217;-68
2022/12/07 00:35:14;;;;;;;10.73;8.93;;;;;;;3.04;100.00;100208.66;5013433;28;20189;-68
2022/12/07 00:37:40;;;;;;;9.97;8.03;;;;;;;3.03;100.00;100204.44;5010910;28;20289;-67
2022/12/07 00:40:06;;;;;;;10.90;8.30;;;;;;;3.08;100.00;100197.53;5003087;28;20633;-67
2022/12/07 00:42:31;;;;;;;10.90;7.77;;;;;;;3.12;100.00;100194.06;5010652;28;20209;-68
2022/12/07 00:44:56;;;;;;;9.37;7.43;;;;;;;3.02;100.00;100193.41;5013190;28;20210;-68
2022/12/07 00:47:25;;;;;;;8.93;7.87;;;;;;;3.07;100.00;100185.69;5012672;28;20232;-67
2022/12/07 00:49:50;;;;;;;10.37;7.57;;;;;;;2.94;100.00;100184.28;5012752;28;20183;-68
2022/12/07 00:52:19;;;;;;;10.07;8.07;;;;;;;2.96;100.00;100180.03;5017726;28;20240;-67
2022/12/07 00:54:44;;;;;;;9.63;7.60;;;;;;;3.00;100.00;100190.09;5003740;28;20210;-67
2022/12/07 00:57:09;;;;;;;9.40;8.00;;;;;;;3.01;100.00;100196.00;5008212;28;20665;-67
2022/12/07 00:59:35;;;;;;;8.83;7.53;;;;;;;2.93;100.00;100191.09;5010988;28;20256;-67
2022/12/07 01:02:00;;;;;;;11.10;7.67;;;;;;;2.86;100.00;100184.47;5014629;28;20236;-67
2022/12/07 01:04:26;;;;;;;9.93;8.03;;;;;;;2.62;100.00;100198.50;5013251;28;20242;-67
2022/12/07 01:06:51;;;;;;;9.83;7.83;;;;;;;2.66;100.00;100200.13;5010827;28;20610;-68
2022/12/07 01:09:17;;;;;;;12.23;8.20;;;;;;;2.68;100.00;100200.91;5027889;28;20213;-67
2022/12/07 01:11:42;;;;;;;10.27;7.93;;;;;;;2.59;100.00;100191.78;5020201;28;20643;-67
2022/12/07 01:14:09;;;;;;;8.27;7.37;;;;;;;2.59;100.00;100196.84;5016057;28;20307;-67
2022/12/07 01:16:35;;;;;;;8.47;7.43;;;;;;;2.65;100.00;100183.22;5026957;28;20186;-67
2022/12/07 01:19:04;;;;;;;9.90;7.67;;;;;;;2.77;100.00;100189.72;5012648;28;20193;-67
2022/12/07 01:21:37;;;;;;;11.90;8.57;;;;;;;2.80;100.00;100189.66;5012335;28;20231;-67
2022/12/07 01:24:04;;;;;;;9.00;7.97;;;;;;;2.65;100.00;100188.28;5027275;28;20198;-67
2022/12/07 01:26:30;;;;;;;10.60;7.33;;;;;;;2.71;100.00;100186.44;5011858;28;20276;-67
2022/12/07 01:28:56;;;;;;;9.47;7.30;;;;;;;2.85;100.00;100185.31;5011903;28;20269;-67
2022/12/07 01:31:24;;;;;;;9.70;7.13;;;;;;;2.66;100.00;100183.16;5020340;28;20221;-67
2022/12/07 01:33:52;;;;;;;8.00;7.20;;;;;;;2.49;100.00;100187.75;5017698;28;20269;-67
2022/12/07 01:36:19;;;;;;;9.37;8.27;;;;;;;2.37;100.00;100189.66;5026974;28;20560;-67
2022/12/07 01:38:48;;;;;;;9.10;7.80;;;;;;;2.46;100.00;100185.28;5027172;28;20188;-68
2022/12/07 01:41:20;;;;;;;8.83;7.30;;;;;;;2.44;100.00;100187.00;4991902;28;20239;-68
2022/12/07 01:44:10;;;;;;;9.33;7.83;;;;;;;2.42;100.00;100194.66;5010599;28;20263;-67
2022/12/07 01:46:35;;;;;;;9.10;8.07;;;;;;;2.60;100.00;100193.44;5010128;28;20216;-67
2022/12/07 01:49:03;;;;;;;10.10;8.30;;;;;;;2.54;100.00;100186.81;5011948;28;20189;-67
2022/12/07 01:51:29;;;;;;;9.30;7.57;;;;;;;2.42;100.00;100187.06;5004871;28;20701;-67
2022/12/07 01:53:59;;;;;;;9.47;7.67;;;;;;;2.52;100.00;100191.06;5009527;28;20182;-67
2022/12/07 01:56:27;;;;;;;9.43;8.40;;;;;;;2.74;100.00;100185.53;4998416;28;20187;-67
2022/12/07 01:58:55;;;;;;;8.57;7.20;;;;;;;2.78;100.00;100181.25;5012645;28;20296;-67
2022/12/07 02:01:23;;;;;;;8.10;7.30;;;;;;;2.63;100.00;100179.84;5009703;28;20367;-67
2022/12/07 02:03:49;;;;;;;9.67;7.97;;;;;;;2.65;100.00;100176.41;5017662;28;20174;-67
2022/12/07 02:06:19;;;;;;;9.50;8.27;;;;;;;2.63;100.00;100178.16;5010347;28;20205;-67
2022/12/07 02:08:45;;;;;;;8.90;8.00;;;;;;;2.71;100.00;100178.00;5026781;28;20276;-68
2022/12/07 02:11:11;;;;;;;8.93;7.73;;;;;;;2.81;100.00;100176.09;5010076;28;20248;-68
2022/12/07 02:13:40;;;;;;;9.30;7.17;;;;;;;2.80;100.00;100165.09;5018207;28;20256;-67
2022/12/07 02:16:35;;;;;;;10.60;7.57;;;;;;;2.54;100.00;100165.63;5011491;28;20193;-67
2022/12/07 02:19:30;;;;;;;9.27;8.03;;;;;;;2.70;100.00;100158.53;5027148;28;20177;-67
2022/12/07 02:22:16;;;;;;;10.40;8.10;;;;;;;2.84;100.00;100163.31;5002790;28;20216;-68
2022/12/07 02:25:08;;;;;;;8.53;7.63;;;;;;;2.93;100.00;100162.28;5021869;28;20226;-67
2022/12/07 02:27:47;;;;;;;10.60;7.73;;;;;;;2.79;100.00;100160.06;5026448;28;20190;-67
2022/12/07 02:30:15;;;;;;;8.20;7.30;;;;;;;2.91;100.00;100157.25;4993271;28;20190;-67
2022/12/07 02:32:58;;;;;;;9.67;7.47;;;;;;;2.77;100.00;100159.25;5026338;28;20258;-68
2022/12/07 02:35:46;;;;;;;8.50;7.47;;;;;;;2.93;100.00;100157.19;5011748;28;20218;-67
2022/12/07 02:38:20;;;;;;;9.33;7.87;;;;;;;3.06;100.00;100156.06;4940178;29;20262;-68
2022/12/07 02:40:51;;;;;;;7.80;6.63;;;;;;;3.22;100.00;100152.31;4940964;28;20283;-67
2022/12/07 02:43:25;;;;;;;8.83;7.63;;;;;;;3.12;100.00;100157.66;4944555;29;20220;-68
2022/12/07 02:46:15;;;;;;;9.20;7.30;;;;;;;3.04;100.00;100151.03;4954062;28;20259;-67
2022/12/07 02:48:43;;;;;;;11.93;6.63;;;;;;;3.12;100.00;100155.94;4954447;28;20219;-67
2022/12/07 02:51:08;;;;;;;9.50;7.10;;;;;;;3.17;100.00;100145.66;4944006;28;20228;-67
2022/12/07 02:53:42;;;;;;;12.17;7.20;;;;;;;2.84;100.00;100143.00;4952907;28;20192;-68
2022/12/07 02:56:21;;;;;;;7.57;6.63;;;;;;;2.85;100.00;100139.59;4955636;28;20193;-67
2022/12/07 02:59:02;;;;;;;8.30;7.07;;;;;;;2.88;100.00;100145.44;4934470;29;20178;-68
2022/12/07 03:01:59;;;;;;;7.90;7.10;;;;;;;3.04;100.00;100140.84;4940062;28;20216;-67
2022/12/07 03:04:38;;;;;;;9.53;6.90;;;;;;;3.19;100.00;100131.22;4938560;29;20247;-67
2022/12/07 03:07:11;;;;;;;8.60;6.63;;;;;;;3.05;100.00;100136.59;4953806;28;20280;-68
2022/12/07 03:09:55;;;;;;;9.20;6.57;;;;;;;3.04;100.00;100140.03;4950711;28;20283;-67
2022/12/07 03:12:46;;;;;;;7.80;6.47;;;;;;;3.02;100.00;100134.97;4931522;29;20245;-67
2022/12/07 03:15:50;;;;;;;7.40;6.37;;;;;;;2.96;100.00;100131.75;4982007;28;20205;-67
2022/12/07 03:18:24;;;;;;;7.47;6.70;;;;;;;3.12;100.00;100130.50;4937885;29;20204;-67
2022/12/07 03:20:52;;;;;;;8.70;6.57;;;;;;;3.20;100.00;100125.25;4938905;28;20231;-68
2022/12/07 03:23:19;;;;;;;10.07;7.00;;;;;;;3.25;100.00;100126.00;4934880;29;20186;-67
2022/12/07 03:25:54;;;;;;;8.57;6.03;;;;;;;3.27;100.00;100124.22;4927829;29;20216;-66
2022/12/07 03:28:22;;;;;;;7.93;6.57;;;;;;;3.16;100.00;100121.09;4934354;29;20197;-66
2022/12/07 03:31:20;;;;;;;6.60;5.93;;;;;;;3.26;100.00;100121.72;4931508;28;20295;-68
2022/12/07 03:34:10;;;;;;;9.57;5.83;;;;;;;3.29;100.00;100121.66;4930786;29;20192;-67
2022/12/07 03:37:12;;;;;;;7.90;6.70;;;;;;;3.15;100.00;100127.06;4926654;29;20401;-67
2022/12/07 03:40:00;;;;;;;9.57;6.93;;;;;;;3.16;100.00;100123.66;4933679;28;20188;-67
2022/12/07 03:42:27;;;;;;;9.17;6.60;;;;;;;3.30;100.00;100120.78;4936730;28;20238;-67
2022/12/07 03:44:55;;;;;;;7.47;6.67;;;;;;;3.39;100.00;100118.03;4934762;29;20181;-67
2022/12/07 03:47:31;;;;;;;7.57;6.77;;;;;;;3.48;100.00;100120.31;4947119;29;20220;-68
2022/12/07 03:50:06;;;;;;;7.90;6.60;;;;;;;3.52;100.00;100116.84;4949865;29;20187;-67
2022/12/07 03:52:34;;;;;;;7.63;6.93;;;;;;;3.56;100.00;100115.06;4918222;29;20251;-67
2022/12/07 03:55:08;;;;;;;9.83;7.23;;;;;;;3.48;100.00;100112.69;4983038;28;20182;-68
2022/12/07 03:57:36;;;;;;;9.67;8.03;;;;;;;3.60;100.00;100113.25;5028555;28;20197;-68
2022/12/07 04:00:06;;;;;;;10.57;7.83;;;;;;;3.65;100.00;100109.72;5012665;28;20249;-67
2022/12/07 04:02:33;;;;;;;10.33;8.23;;;;;;;3.65;100.00;100108.91;4962939;28;20223;-67
2022/12/07 04:04:59;;;;;;;9.10;7.77;;;;;;;3.65;100.00;100104.63;5013748;28;20218;-67
2022/12/07 04:07:24;;;;;;;11.43;8.27;;;;;;;3.66;100.00;100105.47;5013697;28;20265;-67
2022/12/07 04:09:50;;;;;;;9.17;8.20;;;;;;;3.73;100.00;100109.53;5013196;28;20213;-67
2022/12/07 04:12:15;;;;;;;8.40;7.47;;;;;;;3.63;100.00;100108.09;5018698;28;20241;-67
2022/12/07 04:14:40;;;;;;;8.60;7.00;;;;;;;3.53;100.00;100110.88;5013647;28;20545;-67
2022/12/07 04:17:06;;;;;;;7.93;7.03;;;;;;;3.52;100.00;100110.91;5019813;28;20632;-67
2022/12/07 04:19:36;;;;;;;9.40;7.40;;;;;;;3.50;100.00;100116.03;5029164;28;20242;-67
2022/12/07 04:22:03;;;;;;;8.27;6.60;;;;;;;3.37;100.00;100112.13;4974005;28;20254;-67
2022/12/07 04:24:29;;;;;;;9.07;6.97;;;;;;;3.54;100.00;100110.00;5022649;28;20189;-68
2022/12/07 04:26:57;;;;;;;8.90;7.50;;;;;;;3.58;100.00;100117.56;5011801;28;20206;-68
2022/12/07 04:29:24;;;;;;;8.70;6.80;;;;;;;3.51;100.00;100110.09;5028442;28;20229;-67
2022/12/07 04:31:49;;;;;;;10.73;7.47;;;;;;;3.48;100.00;100112.69;4985780;28;20226;-67
2022/12/07 04:34:16;;;;;;;9.50;7.50;;;;;;;3.64;100.00;100109.78;5010030;28;20587;-67
2022/12/07 04:36:43;;;;;;;9.57;7.60;;;;;;;3.63;100.00;100115.72;5028228;28;20179;-68
2022/12/07 04:39:18;;;;;;;9.13;8.23;;;;;;;3.59;100.00;100112.44;5013448;28;20197;-68
2022/12/07 04:41:44;;;;;;;10.73;7.67;;;;;;;3.63;100.00;100114.00;5021237;28;20217;-67
2022/12/07 04:44:09;;;;;;;13.87;8.57;;;;;;;3.56;100.00;100112.53;5015369;28;20179;-67
2022/12/07 04:46:35;;;;;;;10.27;9.17;;;;;;;3.52;100.00;100108.38;5012690;28;20203;-67
2022/12/07 04:49:00;;;;;;;10.13;8.37;;;;;;;3.62;100.00;100104.75;5012590;28;20964;-67
2022/12/07 04:51:28;;;;;;;10.20;9.20;;;;;;;3.60;100.00;100100.53;5006634;28;20233;-67
2022/12/07 04:53:55;;;;;;;9.50;8.47;;;;;;;3.56;100.00;100107.44;5025707;28;20190;-67
2022/12/07 04:56:24;;;;;;;13.20;8.90;;;;;;;3.53;100.00;100108.31;5020146;28;20187;-66
2022/12/07 04:58:51;;;;;;;9.67;8.60;;;;;;;3.66;100.00;100108.00;5027889;28;20567;-67
2022/12/07 05:01:18;;;;;;;10.40;8.87;;;;;;;3.72;100.00;100105.31;5014131;28;20234;-67
2022/12/07 05:03:53;;;;;;;10.30;9.20;;;;;;;3.75;100.00;100106.97;5015223;28;20183;-67
2022/12/07 05:06:40;;;;;;;9.17;8.27;;;;;;;3.69;100.00;100102.84;5026712;28;20620;-67
2022/12/07 05:09:06;;;;;;;9.47;8.13;;;;;;;3.82;100.00;100105.91;5027576;28;20657;-67
2022/12/07 05:11:37;;;;;;;10.00;8.70;;;;;;;3.91;100.00;100105.66;5010435;28;20230;-67
2022/12/07 05:14:16;;;;;;;11.00;8.63;;;;;;;3.95;100.00;100102.16;5011224;28;20183;-67
2022/12/07 05:16:43;;;;;;;11.43;9.60;;;;;;;3.94;100.00;100105.56;5012226;28;20190;-67
2022/12/07 05:19:09;;;;;;;9.73;8.73;;;;;;;3.85;100.00;100106.66;5027994;28;20187;-67
2022/12/07 05:21:35;;;;;;;12.27;9.00;;;;;;;3.97;100.00;100107.19;5019932;28;20590;-68
2022/12/07 05:24:01;;;;;;;13.17;8.93;;;;;;;3.87;100.00;100114.28;5011190;28;20262;-67
2022/12/07 05:26:30;;;;;;;9.60;8.50;;;;;;;3.87;100.00;100106.63;5002737;28;20646;-67
2022/12/07 05:28:59;;;;;;;12.70;9.37;;;;;;;3.77;100.00;100103.50;5012030;28;20201;-68
2022/12/07 05:31:28;;;;;;;12.47;8.83;;;;;;;3.90;100.00;100109.09;5019534;28;20309;-67
2022/12/07 05:33:54;;;;;;;11.47;9.63;;;;;;;3.94;100.00;100105.56;5015501;28;20182;-68
2022/12/07 05:36:20;;;;;;;10.53;9.43;;;;;;;3.99;100.00;100110.53;5008104;28;20210;-68
2022/12/07 05:38:48;;;;;;;12.00;10.13;;;;;;;4.04;100.00;100108.72;5026806;28;20178;-68
2022/12/07 05:44:01;;;;;;;12.03;9.80;;;;;;;4.01;100.00;100108.81;5015860;28;20709;-68
2022/12/07 05:46:26;;;;;;;10.80;9.70;;;;;;;4.02;100.00;100113.03;5011813;28;20192;-68
2022/12/07 05:48:52;;;;;;;13.20;9.97;;;;;;;4.11;100.00;100111.94;5012124;28;20186;-66
2022/12/07 05:51:18;;;;;;;11.93;9.43;;;;;;;4.03;100.00;100109.56;5011981;28;20228;-67
2022/12/07 05:53:43;;;;;;;12.37;9.80;;;;;;;4.01;100.00;100114.72;5009499;28;20262;-66
2022/12/07 05:56:24;;;;;;;9.93;8.90;;;;;;;4.02;100.00;100108.75;5000268;28;20666;-68
2022/12/07 06:01:33;;;;;;;11.43;9.57;;;;;;;3.79;100.00;100108.53;5013474;28;20292;-66
2022/12/07 06:03:59;;;;;;;12.90;9.73;;;;;;;3.83;100.00;100117.75;5015431;28;20630;-68
2022/12/07 06:06:24;;;;;;;11.97;9.93;;;;;;;3.72;100.00;100111.25;5018225;28;20245;-66
2022/12/07 06:08:50;;;;;;;13.50;9.80;;;;;;;3.77;100.00;100103.50;5010340;28;20198;-66
2022/12/07 06:14:00;;;;;;;10.03;9.03;;;;;;;3.89;100.00;100104.88;5015234;28;20721;-66
2022/12/07 06:16:25;;;;;;;11.37;9.70;;;;;;;4.05;100.00;100105.28;5011656;28;20275;-68
2022/12/07 06:18:50;;;;;;;11.60;10.03;;;;;;;4.00;100.00;100105.41;5010817;28;20180;-68
2022/12/07 06:21:18;;;;;;;11.83;10.33;;;;;;;4.01;100.00;100104.53;5011074;28;20595;-69
2022/12/07 06:23:43;;;;;;;10.07;9.07;;;;;;;3.99;100.00;100103.72;5017283;28;20658;-68
2022/12/07 06:26:09;;;;;;;10.23;9.00;;;;;;;3.94;100.00;100105.56;5011492;28;20222;-68
2022/12/07 06:28:34;;;;;;;11.43;9.60;;;;;;;3.96;100.00;100113.19;5010239;28;20178;-68
2022/12/07 06:31:01;;;;;;;10.40;8.47;;;;;;;3.83;100.00;100105.03;5008958;28;20309;-68
2022/12/07 06:33:27;;;;;;;13.17;8.37;;;;;;;4.00;100.00;100110.50;5008738;28;20300;-67
2022/12/07 06:35:53;;;;;;;12.33;9.40;;;;;;;4.00;100.00;100113.03;4993801;28;20260;-66
2022/12/07 06:38:18;;;;;;;12.50;9.13;;;;;;;3.91;100.00;100109.91;5011165;28;20195;-66
2022/12/07 06:40:43;;;;;;;10.67;9.57;;;;;;;3.81;100.00;100115.25;5018718;28;20561;-66
2022/12/07 06:43:09;;;;;;;11.40;9.50;;;;;;;3.80;100.00;100108.50;5021417;28;20709;-66
2022/12/07 06:45:34;;;;;;;10.97;8.97;;;;;;;3.78;100.00;100104.31;5011468;28;20194;-66
2022/12/07 06:47:59;;;;;;;8.93;8.03;;;;;;;3.76;100.00;100099.28;5010868;28;20187;-66
2022/12/07 06:50:25;;;;;;;9.60;8.67;;;;;;;3.80;100.00;100113.59;5003972;28;20751;-66
2022/12/07 06:52:51;;;;;;;11.63;10.17;;;;;;;3.54;100.00;100107.44;5023889;28;20179;-68
2022/12/07 06:55:16;;;;;;;12.47;8.97;;;;;;;3.55;100.00;100113.41;5026179;28;20207;-67
2022/12/07 06:57:41;;;;;;;12.47;9.57;;;;;;;3.35;100.00;100116.41;4998001;28;20207;-69
2022/12/07 07:00:07;;;;;;;12.40;10.27;;;;;;;3.37;100.00;100120.63;5016917;28;20547;-66
2022/12/07 07:02:32;;;;;;;13.40;11.73;;;;;;;3.30;100.00;100116.53;5026039;28;20184;-67
2022/12/07 07:04:58;;;;;;;11.20;9.47;;;;;;;3.40;100.00;100122.25;5011014;28;20197;-67
2022/12/07 07:07:23;;;;;;;11.87;9.90;;;;;;;3.28;100.00;100127.63;5010756;28;20504;-67
2022/12/07 07:09:48;;;;;;;11.53;9.57;;;;;;;3.21;100.00;100116.75;5009434;28;20297;-68
2022/12/07 07:12:14;;;;;;;10.77;9.27;;;;;;;3.45;100.00;100119.56;5015745;28;20321;-68
2022/12/07 07:14:39;;;;;;;11.00;8.63;;;;;;;3.52;100.00;100121.94;5009673;28;20581;-67
2022/12/07 07:17:04;;;;;;;12.23;8.53;;;;;;;3.63;100.00;100126.72;5010660;28;20206;-67
2022/12/07 07:19:29;;;;;;;10.63;9.30;;;;;;;3.75;100.00;100127.31;5011431;28;20541;-67
2022/12/07 07:21:55;;;;;;;12.47;9.33;;;;;;;3.80;100.00;100121.22;5014461;28;20275;-68
2022/12/07 07:24:20;;;;;;;11.50;9.27;;;;;;;3.86;100.00;100126.16;5011455;28;20507;-68
2022/12/07 07:26:45;;;;;;;10.73;9.10;;;;;;;3.79;100.00;100126.34;5011749;28;20205;-68
2022/12/07 07:29:11;;;;;;;12.27;8.90;;;;;;;3.86;100.00;100132.97;5013546;28;20192;-68
2022/12/07 07:31:37;;;;;;;8.70;7.53;;;;;;;3.88;100.00;100134.59;5010337;28;20612;-68
2022/12/07 07:34:02;;;;;;;10.60;9.00;;;;;;;3.86;100.00;100130.41;5015949;28;20193;-67
2022/12/07 07:36:27;;;;;;;14.43;9.20;;;;;;;3.91;100.00;100138.75;5013330;28;20181;-68
2022/12/07 07:38:53;;;;;;;12.50;9.53;;;;;;;3.96;100.00;100134.38;5014244;28;21026;-68
2022/12/07 07:41:18;;;;;;;12.43;10.50;;;;;;;3.87;100.00;100138.00;5012942;28;20218;-68
2022/12/07 07:43:43;;;;;;;8.90;7.37;;;;;;;3.86;100.00;100127.88;5018467;28;20297;-69
2022/12/07 07:46:09;;;;;;;9.57;7.80;;;;;;;4.01;100.00;100137.63;5011447;28;20289;-68
2022/12/07 07:48:34;;;;;;;9.20;7.90;;;;;;;3.99;100.00;100133.47;5013888;28;20211;-68
2022/12/07 07:50:59;;;;;;;8.83;7.93;;;;;;;4.15;100.00;100141.53;5021922;28;20236;-68
2022/12/07 07:53:25;;;;;;;8.70;7.40;;;;;;;3.96;100.00;100149.66;5019850;28;20194;-63
2022/12/07 07:55:53;;;;;;;8.33;7.47;;;;;;;4.00;100.00;100147.84;5015828;28;20213;-64
2022/12/07 07:58:19;;;;;;;9.63;8.20;;;;;;;3.98;100.00;100141.97;5013010;28;20183;-64
2022/12/07 08:00:45;;;;;;;8.20;7.40;;;;;;;3.91;100.00;100137.91;5006422;28;20225;-64
2022/12/07 08:03:10;;;;;;;8.17;6.87;;;;;;;4.07;100.00;100141.72;5013824;28;20184;-63
2022/12/07 08:05:37;;;;;;;7.60;6.70;;;;;;;4.10;100.00;100146.72;5009341;28;20344;-62
2022/12/07 08:08:02;;;;;;;9.27;7.17;;;;;;;3.96;100.00;100146.28;5021375;28;20182;-68
2022/12/07 08:10:28;;;;;;;8.50;7.30;;;;;;;4.15;100.00;100147.44;4995816;28;20244;-67
2022/12/07 08:13:13;;;;;;;8.47;7.07;;;;;;;4.11;100.00;100139.94;5021672;28;20198;-68
2022/12/07 08:15:41;;;;;;;7.70;6.90;;;;;;;4.25;100.00;100142.94;5008026;28;20233;-67
2022/12/07 08:18:06;;;;;;;8.93;7.60;;;;;;;4.38;100.00;100143.44;5024027;28;20229;-68
2022/12/07 08:20:33;;;;;;;7.77;6.97;;;;;;;4.49;100.00;100146.50;5007478;28;20253;-67
2022/12/07 08:22:58;;;;;;;8.60;7.73;;;;;;;4.65;100.00;100146.06;5012294;28;20679;-67
2022/12/07 08:25:24;;;;;;;9.40;7.90;;;;;;;4.72;100.00;100145.00;5013954;28;20289;-67
2022/12/07 08:27:50;;;;;;;9.03;7.13;;;;;;;4.73;100.00;100148.41;5008211;28;20229;-67
2022/12/07 08:30:16;;;;;;;18.27;13.17;;;;;;;4.98;100.00;100148.47;4983328;28;20187;-68
2022/12/07 08:32:41;;;;;;;8.13;7.10;;;;;;;4.95;100.00;100146.88;5027706;28;20333;-69
2022/12/07 08:35:07;;;;;;;8.23;7.43;;;;;;;4.73;100.00;100151.75;5013548;28;20270;-68
2022/12/07 08:37:33;;;;;;;6.93;6.23;;;;;;;4.84;100.00;100147.19;5027768;28;20179;-78
2022/12/07 08:39:58;;;;;;;8.80;7.10;;;;;;;4.51;100.00;100154.94;5009776;28;20196;-68
2022/12/07 08:42:29;;;;;;;7.07;6.37;;;;;;;4.73;100.00;100154.31;5013203;28;20227;-68
2022/12/07 08:44:56;;;;;;;7.77;6.97;;;;;;;4.95;100.00;100154.50;5013509;28;20201;-67
2022/12/07 08:47:21;;;;;;;8.77;6.50;;;;;;;5.15;100.00;100163.28;5025225;28;20195;-67
2022/12/07 08:49:49;;;;;;;7.67;6.33;;;;;;;5.52;100.00;100159.56;5012708;28;20637;-67
2022/12/07 08:52:15;;;;;;;7.37;6.67;;;;;;;6.92;100.00;100155.50;5019784;28;20224;-67
2022/12/07 08:54:41;;;;;;;7.13;5.70;;;;;;;8.58;100.00;100157.16;5028299;28;20190;-68
2022/12/07 08:57:09;;;;;;;5.43;4.93;;;;;;;9.77;100.00;100148.94;5012422;28;20668;-68
2022/12/07 08:59:36;;;;;;;8.23;7.00;;;;;;;9.31;100.00;100149.50;5028089;28;20249;-67
2022/12/07 09:02:02;;;;;;;11.60;6.70;;;;;;;9.25;100.00;100157.50;5014327;28;20257;-67
2022/12/07 09:04:27;;;;;;;8.33;6.97;;;;;;;9.27;100.00;100152.31;5012192;28;20646;-68
2022/12/07 09:06:54;;;;;;;10.20;8.57;;;;;;;9.72;100.00;100156.06;5027070;28;20261;-67
2022/12/07 09:09:19;;;;;;;9.87;8.83;;;;;;;10.34;100.00;100153.75;5010576;28;20210;-67
2022/12/07 09:11:45;;;;;;;11.53;7.50;;;;;;;9.58;100.00;100159.31;5014746;28;20622;-67
2022/12/07 09:14:10;;;;;;;8.20;6.93;;;;;;;9.15;100.00;100152.00;5014616;28;20278;-67
2022/12/07 09:16:35;;;;;;;7.30;6.17;;;;;;;9.01;100.00;100149.25;5012152;28;20189;-67
2022/12/07 09:19:01;;;;;;;7.60;6.80;;;;;;;8.17;100.00;100160.63;5010747;28;20185;-67
2022/12/07 09:21:26;;;;;;;7.33;6.33;;;;;;;7.97;100.00;100156.38;5012984;28;20588;-67
2022/12/07 09:23:52;;;;;;;10.67;9.57;;;;;;;8.63;100.00;100160.34;5013830;28;20638;-67
2022/12/07 09:26:17;;;;;;;8.43;7.63;;;;;;;10.57;100.00;100156.88;5009236;28;20256;-68
2022/12/07 09:28:42;;;;;;;8.67;5.33;;;;;;;12.19;88.88;100157.22;5011938;28;20555;-67
2022/12/07 09:31:08;;;;;;;6.93;6.23;;;;;;;13.15;75.00;100150.44;5010633;28;20301;-67
2022/12/07 09:33:33;;;;;;;5.70;3.77;;;;;;;14.18;65.65;100151.38;5010619;28;20178;-68
2022/12/07 09:35:58;;;;;;;6.53;4.30;;;;;;;14.13;62.77;100155.22;5011447;28;20484;-68
2022/12/07 09:38:26;;;;;;;6.67;3.90;;;;;;;14.44;61.09;100159.09;5010104;28;20402;-66
2022/12/07 09:40:54;;;;;;;5.20;4.00;;;;;;;13.69;59.50;100155.53;5007962;28;20221;-68
2022/12/07 09:43:23;;;;;;;6.13;4.03;;;;;;;12.98;62.77;100156.69;5010141;28;20262;-68
2022/12/07 09:45:53;;;;;;;3.93;3.23;;;;;;;12.83;65.84;100155.91;5023459;28;20226;-68
2022/12/07 09:48:22;;;;;;;3.60;3.13;;;;;;;13.52;63.02;100160.97;5009494;28;20179;-68
2022/12/07 09:50:49;;;;;;;5.70;3.90;;;;;;;13.79;63.15;100160.06;5015933;28;20225;-68
2022/12/07 09:53:30;;;;;;;4.63;3.57;;;;;;;14.79;54.95;100163.56;5007265;28;20186;-68
2022/12/07 09:55:56;;;;;;;6.20;3.40;;;;;;;14.61;54.37;100165.66;5026300;28;20689;-68
2022/12/07 09:58:27;;;;;;;5.20;3.70;;;;;;;13.74;58.67;100159.56;5026590;28;20293;-68
2022/12/07 10:01:00;;;;;;;7.27;3.80;;;;;;;13.37;62.09;100149.84;5014145;28;20224;-70
2022/12/07 10:03:29;;;;;;;4.83;4.00;;;;;;;11.92;73.74;100157.06;5024319;28;20186;-68
2022/12/07 10:05:55;;;;;;;4.83;3.53;;;;;;;10.15;89.17;100147.91;5019264;28;20558;-67
2022/12/07 10:08:20;;;;;;;4.73;4.10;;;;;;;9.32;98.88;100146.03;5009921;28;20195;-68
2022/12/07 10:10:50;;;;;;;4.27;3.30;;;;;;;8.21;100.00;100140.84;5007068;28;20698;-67
2022/12/07 10:13:22;;;;;;;4.60;3.50;;;;;;;7.90;100.00;100140.44;5020654;28;20171;-68
2022/12/07 10:15:54;;;;;;;5.53;3.60;;;;;;;7.70;100.00;100132.78;5018514;28;20201;-68
2022/12/07 10:18:20;;;;;;;5.50;3.93;;;;;;;7.19;100.00;100134.84;5023317;28;20232;-67
2022/12/07 10:20:48;;;;;;;4.17;3.40;;;;;;;7.11;100.00;100135.97;5002586;28;20233;-67
2022/12/07 10:23:16;;;;;;;8.37;4.57;;;;;;;6.94;100.00;100130.69;5007458;28;20191;-68
2022/12/07 10:25:42;;;;;;;5.27;3.70;;;;;;;6.84;100.00;100125.09;5018702;28;20188;-67
2022/12/07 10:28:07;;;;;;;5.67;3.93;;;;;;;6.46;100.00;100119.72;5011054;28;20265;-68
2022/12/07 10:30:45;;;;;;;4.87;3.37;;;;;;;6.26;100.00;100117.91;5013955;28;20352;-68
2022/12/07 10:33:36;;;;;;;3.20;2.90;;;;;;;5.85;100.00;100109.97;4999418;28;20193;-68
2022/12/07 10:36:18;;;;;;;4.70;3.43;;;;;;;5.73;100.00;100112.06;5005294;28;20614;-67
2022/12/07 10:38:46;;;;;;;5.10;3.00;;;;;;;5.48;100.00;100110.34;5026585;28;20171;-67
2022/12/07 10:41:12;;;;;;;3.37;2.63;;;;;;;5.35;100.00;100106.50;5003321;28;20686;-68
2022/12/07 10:43:46;;;;;;;6.20;3.03;;;;;;;5.42;100.00;100107.13;5010105;28;20181;-67
2022/12/07 10:46:29;;;;;;;6.13;2.63;;;;;;;5.41;100.00;100105.47;5026399;28;20195;-67
2022/12/07 10:49:01;;;;;;;6.97;3.20;;;;;;;5.47;100.00;100103.56;5011729;28;20209;-68
2022/12/07 10:51:57;;;;;;;4.73;2.73;;;;;;;5.48;100.00;100100.13;5003476;28;20231;-68
2022/12/07 10:54:41;;;;;;;4.67;2.77;;;;;;;5.53;100.00;100099.94;4999233;28;20279;-68
2022/12/07 10:57:27;;;;;;;7.80;3.03;;;;;;;5.42;100.00;100100.34;5009257;28;20185;-68
2022/12/07 10:59:56;;;;;;;5.03;2.73;;;;;;;5.29;100.00;100096.50;5010548;28;20196;-68
2022/12/07 11:02:35;;;;;;;3.07;2.60;;;;;;;5.25;100.00;100103.44;5020415;28;20335;-68
2022/12/07 11:05:14;;;;;;;4.53;2.77;;;;;;;5.14;100.00;100097.84;5029821;28;20268;-67
2022/12/07 11:07:55;;;;;;;6.67;3.40;;;;;;;5.31;100.00;100093.03;5028411;28;20438;-67
2022/12/07 11:10:33;;;;;;;3.83;2.47;;;;;;;5.19;100.00;100092.59;5019146;28;20671;-68
2022/12/07 11:13:11;;;;;;;5.43;2.60;;;;;;;5.28;100.00;100094.84;5013929;28;20192;-68
2022/12/07 11:15:46;;;;;;;5.87;3.10;;;;;;;5.39;100.00;100081.75;5027482;28;20186;-68
2022/12/07 11:18:21;;;;;;;4.10;2.30;;;;;;;5.51;100.00;100081.34;5013188;28;20182;-68
2022/12/07 11:21:07;;;;;;;3.87;2.23;;;;;;;5.62;100.00;100086.06;5019572;28;20616;-69
2022/12/07 11:23:56;;;;;;;5.37;2.80;;;;;;;5.69;100.00;100087.50;5011584;28;20651;-68
2022/12/07 11:26:38;;;;;;;4.23;1.93;;;;;;;5.65;100.00;100079.13;5012789;28;20214;-68
2022/12/07 11:29:12;;;;;;;4.35;2.47;;;;;;;5.52;100.00;100075.34;5012887;28;20466;-68
2022/12/07 11:31:48;;;;;;;4.57;2.20;;;;;;;5.66;100.00;100077.41;5016664;28;20231;-69
2022/12/07 11:34:31;;;;;;;4.47;2.03;;;;;;;5.86;100.00;100081.00;5013247;28;20284;-69
2022/12/07 11:36:57;;;;;;;3.13;1.80;;;;;;;5.73;100.00;100071.22;5006572;28;20641;-70
2022/12/07 11:39:25;;;;;;;4.73;1.90;;;;;;;5.76;100.00;100078.75;5013404;28;20186;-69
2022/12/07 11:42:16;;;;;;;4.23;1.50;;;;;;;5.97;100.00;100071.25;5007268;28;20220;-67